createdAt,value
2019-05-11T00:01:54.766Z,45.30
2019-05-11T00:04:23.723Z,45.40
2019-05-11T00:06:52.643Z,45.30
2019-05-11T00:09:22.004Z,45.30
2019-05-11T00:11:50.926Z,45.30
2019-05-11T00:14:19.858Z,45.30
2019-05-11T00:16:48.780Z,45.20
2019-05-11T00:19:17.715Z,45.30
2019-05-11T00:21:46.759Z,45.30
2019-05-11T00:24:15.694Z,45.30
2019-05-11T00:26:44.612Z,45.30
2019-05-11T00:29:13.539Z,45.30
2019-05-11T00:31:42.657Z,45.20
2019-05-11T00:34:11.587Z,45.10
2019-05-11T00:36:40.646Z,45.10
2019-05-11T00:39:09.742Z,45.00
2019-05-11T00:41:38.838Z,45.00
2019-05-11T00:44:08.040Z,45.10
2019-05-11T00:46:37.046Z,45.20
2019-05-11T00:49:06.129Z,45.20
2019-05-11T00:51:35.137Z,45.20
2019-05-11T00:54:04.423Z,45.20
2019-05-11T00:56:33.621Z,45.20
2019-05-11T00:59:02.720Z,45.20
2019-05-11T01:01:31.815Z,45.00
2019-05-11T01:04:01.076Z,44.90
2019-05-11T01:06:30.162Z,44.90
2019-05-11T01:08:59.086Z,44.80
2019-05-11T01:11:28.021Z,44.80
2019-05-11T01:13:56.941Z,44.70
2019-05-11T01:16:25.867Z,44.70
2019-05-11T01:18:54.801Z,45.00
2019-05-11T01:21:23.736Z,45.00
2019-05-11T01:23:52.659Z,45.00
2019-05-11T01:26:21.591Z,44.90
2019-05-11T01:28:50.533Z,44.90
2019-05-11T01:31:19.470Z,44.70
2019-05-11T01:33:48.405Z,44.70
2019-05-11T01:36:17.350Z,44.70
2019-05-11T01:38:46.297Z,44.80
2019-05-11T01:41:15.313Z,44.90
2019-05-11T01:43:44.238Z,44.80
2019-05-11T01:46:13.232Z,44.70
2019-05-11T01:48:42.161Z,44.80
2019-05-11T01:51:11.083Z,44.90
2019-05-11T01:53:39.995Z,44.80
2019-05-11T01:56:08.923Z,44.90
2019-05-11T01:58:37.946Z,44.80
2019-05-11T02:01:06.863Z,44.80
2019-05-11T02:03:35.805Z,44.80
2019-05-11T02:06:04.833Z,44.80
2019-05-11T02:08:33.756Z,45.10
2019-05-11T02:11:15.367Z,45.00
2019-05-11T02:13:33.269Z,44.80
2019-05-11T02:16:02.194Z,44.80
2019-05-11T02:18:31.128Z,44.70
2019-05-11T02:21:00.070Z,44.80
2019-05-11T02:23:29.013Z,44.80
2019-05-11T02:25:58.032Z,44.80
2019-05-11T02:28:26.977Z,44.80
2019-05-11T02:30:55.900Z,45.40
2019-05-11T02:33:24.843Z,44.90
2019-05-11T02:35:53.782Z,44.80
2019-05-11T02:38:22.715Z,44.70
2019-05-11T02:40:51.647Z,45.00
2019-05-11T02:43:20.583Z,44.80
2019-05-11T02:45:49.506Z,45.00
2019-05-11T02:48:18.447Z,44.80
2019-05-11T02:50:47.663Z,44.90
2019-05-11T02:53:17.264Z,44.90
2019-05-11T02:55:47.725Z,44.80
2019-05-11T02:58:16.718Z,44.90
2019-05-11T03:00:47.453Z,45.00
2019-05-11T03:03:16.380Z,44.80
2019-05-11T03:05:45.420Z,44.80
2019-05-11T03:08:14.359Z,45.00
2019-05-11T03:10:43.383Z,44.90
2019-05-11T03:13:12.312Z,45.00
2019-05-11T03:15:41.249Z,44.90
2019-05-11T03:18:10.174Z,45.00
2019-05-11T03:20:39.105Z,44.80
2019-05-11T03:23:08.025Z,44.80
2019-05-11T03:25:36.969Z,44.90
2019-05-11T03:28:05.887Z,44.80
2019-05-11T03:30:34.816Z,44.70
2019-05-11T03:33:03.782Z,44.70
2019-05-11T03:35:32.805Z,44.80
2019-05-11T03:38:01.922Z,45.00
2019-05-11T03:40:30.848Z,45.00
2019-05-11T03:42:59.764Z,45.00
2019-05-11T03:45:28.707Z,45.00
2019-05-11T03:47:57.767Z,45.10
2019-05-11T03:50:26.775Z,45.70
2019-05-11T03:52:55.709Z,45.10
2019-05-11T03:55:24.679Z,45.10
2019-05-11T03:57:53.706Z,45.10
2019-05-11T04:00:22.741Z,45.10
2019-05-11T04:02:51.690Z,45.20
2019-05-11T04:05:20.618Z,45.20
2019-05-11T04:07:49.545Z,45.20
2019-05-11T04:10:18.501Z,45.70
2019-05-11T04:12:47.229Z,45.60
2019-05-11T04:15:16.109Z,45.40
2019-05-11T04:17:44.864Z,45.30
2019-05-11T04:20:13.741Z,45.30
2019-05-11T04:22:42.984Z,45.20
2019-05-11T04:25:11.852Z,45.30
2019-05-11T04:27:40.611Z,45.30
2019-05-11T04:30:09.589Z,45.60
2019-05-11T04:32:38.376Z,45.80
2019-05-11T04:35:07.267Z,46.10
2019-05-11T04:37:36.003Z,46.00
2019-05-11T04:40:05.270Z,46.10
2019-05-11T04:42:52.842Z,45.70
2019-05-11T04:45:06.850Z,41.90
2019-05-11T04:47:35.729Z,40.50
2019-05-11T04:50:07.751Z,39.70
2019-05-11T04:52:36.525Z,39.20
2019-05-11T04:55:05.691Z,38.70
2019-05-11T04:57:34.449Z,39.90
2019-05-11T05:00:03.516Z,41.80
2019-05-11T05:02:32.284Z,42.70
2019-05-11T05:05:01.151Z,43.00
2019-05-11T05:07:29.912Z,43.30
2019-05-11T05:09:58.684Z,43.40
2019-05-11T05:12:27.446Z,43.50
2019-05-11T05:14:56.220Z,43.50
2019-05-11T05:17:25.891Z,43.80
2019-05-11T05:19:54.661Z,43.80
2019-05-11T05:22:23.426Z,43.70
2019-05-11T05:24:52.197Z,43.70
2019-05-11T05:27:20.969Z,43.80
2019-05-11T05:29:49.741Z,44.00
2019-05-11T05:32:18.508Z,44.40
2019-05-11T05:34:47.280Z,44.20
2019-05-11T05:37:16.055Z,43.90
2019-05-11T05:39:44.859Z,43.90
2019-05-11T05:42:12.420Z,44.10
2019-05-11T05:44:41.188Z,44.20
2019-05-11T05:47:09.968Z,44.30
2019-05-11T05:49:38.740Z,44.20
2019-05-11T05:52:07.551Z,44.00
2019-05-11T05:54:36.288Z,43.80
2019-05-11T05:57:05.144Z,43.70
2019-05-11T05:59:33.932Z,43.50
2019-05-11T06:02:02.717Z,43.50
2019-05-11T06:04:31.489Z,43.50
2019-05-11T06:07:00.272Z,43.50
2019-05-11T06:09:29.105Z,43.60
2019-05-11T06:11:57.881Z,43.50
2019-05-11T06:14:26.649Z,43.50
2019-05-11T06:16:55.454Z,43.60
2019-05-11T06:19:24.245Z,43.50
2019-05-11T06:21:53.037Z,43.60
2019-05-11T06:24:21.789Z,43.50
2019-05-11T06:26:50.564Z,43.60
2019-05-11T06:29:21.641Z,43.80
2019-05-11T06:31:49.785Z,43.80
2019-05-11T06:34:18.565Z,43.70
2019-05-11T06:36:47.330Z,43.70
2019-05-11T06:39:16.123Z,43.70
2019-05-11T06:41:44.905Z,43.50
2019-05-11T06:44:13.677Z,43.60
2019-05-11T06:46:42.440Z,43.50
2019-05-11T06:49:11.211Z,43.50
2019-05-11T06:51:40.699Z,43.40
2019-05-11T06:54:09.603Z,43.50
2019-05-11T06:56:38.385Z,43.50
2019-05-11T06:59:07.356Z,43.60
2019-05-11T07:01:36.133Z,43.50
2019-05-11T07:04:04.900Z,43.60
2019-05-11T07:06:33.684Z,43.70
2019-05-11T07:09:02.440Z,43.80
2019-05-11T07:11:31.204Z,43.80
2019-05-11T07:14:00.020Z,44.10
2019-05-11T07:16:28.786Z,43.80
2019-05-11T07:18:57.568Z,43.80
2019-05-11T07:21:26.352Z,43.80
2019-05-11T07:23:55.127Z,43.70
2019-05-11T07:26:23.896Z,43.80
2019-05-11T07:28:52.684Z,43.80
2019-05-11T07:31:21.449Z,43.80
2019-05-11T07:33:50.231Z,43.80
2019-05-11T07:36:19.012Z,43.90
2019-05-11T07:38:48.694Z,43.80
2019-05-11T07:41:17.705Z,43.80
2019-05-11T07:43:48.523Z,43.70
2019-05-11T07:46:18.224Z,43.70
2019-05-11T07:48:47.932Z,43.80
2019-05-11T07:51:18.309Z,43.80
2019-05-11T07:53:48.589Z,43.80
2019-05-11T07:56:18.817Z,43.80
2019-05-11T07:58:48.223Z,43.80
2019-05-11T08:01:18.843Z,43.80
2019-05-11T08:03:48.290Z,44.40
2019-05-11T08:06:18.502Z,43.70
2019-05-11T08:08:48.982Z,43.70
2019-05-11T08:11:18.346Z,43.80
2019-05-11T08:13:48.058Z,43.70
2019-05-11T08:16:18.597Z,43.80
2019-05-11T08:18:48.355Z,43.80
2019-05-11T08:21:17.892Z,43.80
2019-05-11T08:23:48.336Z,43.80
2019-05-11T08:26:19.073Z,43.70
2019-05-11T08:28:48.593Z,43.70
2019-05-11T08:31:18.709Z,43.60
2019-05-11T08:33:48.152Z,43.70
2019-05-11T08:36:18.447Z,43.60
2019-05-11T08:38:48.278Z,43.60
2019-05-11T08:41:18.471Z,43.50
2019-05-11T08:43:48.084Z,43.50
2019-05-11T08:46:18.518Z,43.50
2019-05-11T08:48:47.927Z,43.60
2019-05-11T08:51:18.627Z,43.60
2019-05-11T08:53:48.028Z,43.50
2019-05-11T08:56:18.891Z,43.50
2019-05-11T08:58:49.228Z,43.40
2019-05-11T09:01:18.460Z,43.40
2019-05-11T09:03:47.885Z,43.50
2019-05-11T09:06:17.907Z,43.30
2019-05-11T09:08:49.139Z,43.30
2019-05-11T09:11:19.053Z,43.30
2019-05-11T09:13:48.830Z,43.40
2019-05-11T09:16:19.010Z,43.30
2019-05-11T09:18:48.171Z,43.20
2019-05-11T09:21:19.117Z,43.20
2019-05-11T09:23:48.597Z,43.20
2019-05-11T09:26:18.322Z,43.30
2019-05-11T09:28:47.594Z,43.20
2019-05-11T09:31:18.579Z,43.30
2019-05-11T09:33:47.949Z,43.20
2019-05-11T09:36:18.131Z,43.20
2019-05-11T09:38:48.910Z,43.10
2019-05-11T09:41:18.139Z,43.10
2019-05-11T09:43:48.328Z,43.70
2019-05-11T09:46:18.769Z,43.10
2019-05-11T09:48:48.499Z,43.10
2019-05-11T09:51:18.474Z,43.20
2019-05-11T09:53:48.285Z,43.10
2019-05-11T09:56:18.296Z,43.10
2019-05-11T09:58:47.918Z,43.10
2019-05-11T10:01:18.268Z,43.10
2019-05-11T10:03:48.213Z,43.10
2019-05-11T10:06:19.090Z,43.10
2019-05-11T10:08:48.672Z,43.10
2019-05-11T10:11:18.989Z,43.00
2019-05-11T10:13:47.966Z,43.10
2019-05-11T10:16:17.889Z,43.10
2019-05-11T10:18:49.115Z,43.10
2019-05-11T10:21:18.829Z,43.10
2019-05-11T10:23:48.929Z,43.10
2019-05-11T10:26:18.805Z,43.00
2019-05-11T10:28:48.375Z,43.00
2019-05-11T10:31:18.105Z,43.00
2019-05-11T10:33:49.038Z,43.00
2019-05-11T10:36:18.788Z,43.00
2019-05-11T10:38:48.640Z,43.00
2019-05-11T10:41:18.362Z,42.90
2019-05-11T10:43:48.913Z,42.90
2019-05-11T10:46:22.934Z,42.90
2019-05-11T10:48:48.498Z,42.90
2019-05-11T10:51:18.325Z,43.00
2019-05-11T10:53:51.709Z,42.90
2019-05-11T10:56:18.051Z,43.00
2019-05-11T10:58:48.224Z,42.50
2019-05-11T11:01:18.194Z,42.70
2019-05-11T11:03:48.386Z,42.70
2019-05-11T11:06:18.852Z,42.60
2019-05-11T11:08:48.612Z,42.70
2019-05-11T11:11:18.479Z,42.70
2019-05-11T11:13:48.182Z,42.80
2019-05-11T11:16:32.800Z,42.80
2019-05-11T11:18:48.678Z,42.80
2019-05-11T11:21:22.569Z,42.80
2019-05-11T11:23:48.316Z,42.70
2019-05-11T11:26:18.415Z,42.70
2019-05-11T11:28:47.939Z,42.70
2019-05-11T11:31:18.606Z,42.70
2019-05-11T11:33:48.924Z,42.70
2019-05-11T11:36:18.006Z,42.70
2019-05-11T11:38:47.762Z,42.70
2019-05-11T11:41:18.540Z,42.70
2019-05-11T11:43:48.304Z,42.70
2019-05-11T11:46:18.758Z,42.70
2019-05-11T11:48:48.965Z,42.60
2019-05-11T11:51:18.793Z,42.70
2019-05-11T11:53:48.168Z,42.70
2019-05-11T11:56:19.216Z,43.30
2019-05-11T11:58:48.902Z,42.80
2019-05-11T12:01:18.914Z,42.80
2019-05-11T12:03:48.793Z,42.70
2019-05-11T12:06:18.396Z,43.00
2019-05-11T12:08:49.800Z,42.70
2019-05-11T12:11:18.764Z,42.80
2019-05-11T12:13:47.892Z,42.70
2019-05-11T12:16:18.101Z,42.80
2019-05-11T12:18:48.651Z,42.80
2019-05-11T12:21:18.566Z,42.80
2019-05-11T12:23:48.527Z,42.80
2019-05-11T12:26:17.856Z,42.80
2019-05-11T12:28:48.779Z,42.90
2019-05-11T12:31:18.386Z,42.90
2019-05-11T12:33:48.407Z,42.60
2019-05-11T12:36:18.820Z,42.70
2019-05-11T12:38:48.907Z,42.90
2019-05-11T12:41:19.086Z,43.00
2019-05-11T12:43:48.995Z,43.00
2019-05-11T12:46:18.864Z,43.00
2019-05-11T12:48:48.673Z,43.00
2019-05-11T12:51:18.668Z,43.00
2019-05-11T12:53:47.877Z,43.00
2019-05-11T12:56:18.904Z,42.90
2019-05-11T12:58:49.122Z,43.00
2019-05-11T13:01:18.667Z,42.90
2019-05-11T13:03:49.276Z,43.00
2019-05-11T13:06:19.021Z,43.00
2019-05-11T13:08:48.354Z,42.90
2019-05-11T13:11:18.650Z,42.90
2019-05-11T13:13:48.479Z,42.80
2019-05-11T13:16:18.372Z,42.80
2019-05-11T13:18:48.854Z,42.70
2019-05-11T13:21:18.321Z,42.80
2019-05-11T13:23:48.883Z,42.80
2019-05-11T13:26:18.120Z,42.80
2019-05-11T13:28:48.784Z,42.80
2019-05-11T13:31:18.691Z,42.80
2019-05-11T13:33:50.046Z,42.80
2019-05-11T13:36:18.897Z,42.80
2019-05-11T13:38:54.047Z,42.80
2019-05-11T13:41:22.978Z,42.80
2019-05-11T13:43:51.767Z,42.90
2019-05-11T13:46:20.527Z,43.10
2019-05-11T13:48:49.308Z,43.10
2019-05-11T13:51:18.484Z,43.10
2019-05-11T13:53:48.237Z,43.10
2019-05-11T13:56:18.305Z,43.20
2019-05-11T13:58:48.720Z,43.20
2019-05-11T14:01:22.902Z,43.20
2019-05-11T14:03:51.621Z,43.30
2019-05-11T14:06:20.392Z,43.30
2019-05-11T14:08:49.187Z,43.70
2019-05-11T14:11:18.431Z,43.30
2019-05-11T14:13:48.023Z,43.30
2019-05-11T14:16:18.651Z,43.80
2019-05-11T14:18:48.921Z,43.30
2019-05-11T14:21:18.525Z,43.60
2019-05-11T14:23:48.319Z,43.60
2019-05-11T14:26:19.122Z,43.90
2019-05-11T14:28:48.191Z,43.90
2019-05-11T14:31:18.964Z,44.40
2019-05-11T14:33:48.902Z,44.90
2019-05-11T14:36:18.525Z,44.70
2019-05-11T14:38:48.764Z,45.60
2019-05-11T14:41:18.310Z,45.30
2019-05-11T14:43:48.935Z,45.40
2019-05-11T14:46:18.211Z,45.30
2019-05-11T14:48:48.097Z,45.40
2019-05-11T14:51:17.975Z,45.40
2019-05-11T14:53:48.137Z,45.40
2019-05-11T14:56:19.043Z,45.30
2019-05-11T14:58:49.285Z,45.40
2019-05-11T15:01:18.555Z,45.40
2019-05-11T15:03:48.681Z,45.40
2019-05-11T15:06:18.844Z,45.40
2019-05-11T15:08:48.045Z,45.30
2019-05-11T15:11:18.931Z,45.30
2019-05-11T15:13:48.784Z,45.30
2019-05-11T15:16:18.740Z,45.30
2019-05-11T15:18:48.456Z,45.20
2019-05-11T15:21:18.871Z,45.20
2019-05-11T15:23:47.954Z,45.00
2019-05-11T15:26:18.482Z,45.00
2019-05-11T15:28:48.573Z,45.00
2019-05-11T15:31:22.175Z,44.90
2019-05-11T15:33:48.847Z,45.00
2019-05-11T15:36:19.213Z,45.10
2019-05-11T15:38:48.362Z,45.20
2019-05-11T15:41:17.748Z,45.20
2019-05-11T15:43:48.039Z,45.30
2019-05-11T15:46:19.417Z,45.20
2019-05-11T15:48:56.729Z,45.30
2019-05-11T15:51:18.955Z,45.30
2019-05-11T15:53:50.334Z,45.40
2019-05-11T15:56:19.051Z,45.40
2019-05-11T15:58:48.575Z,45.60
2019-05-11T16:01:18.644Z,45.60
2019-05-11T16:03:49.975Z,45.60
2019-05-11T16:06:18.672Z,45.70
2019-05-11T16:08:47.740Z,45.70
2019-05-11T16:11:18.039Z,45.90
2019-05-11T16:13:48.423Z,45.80
2019-05-11T16:16:17.272Z,45.90
2019-05-11T16:18:46.048Z,45.80
2019-05-11T16:21:14.816Z,45.80
2019-05-11T16:23:43.922Z,45.70
2019-05-11T16:26:12.695Z,45.70
2019-05-11T16:28:41.506Z,45.70
2019-05-11T16:31:11.929Z,45.60
2019-05-11T16:33:40.904Z,45.70
2019-05-11T16:36:09.765Z,45.70
2019-05-11T16:38:38.551Z,45.60
2019-05-11T16:41:09.118Z,45.70
2019-05-11T16:43:38.683Z,46.50
2019-05-11T16:46:08.673Z,46.10
2019-05-11T16:48:39.712Z,46.10
2019-05-11T16:51:08.801Z,46.00
2019-05-11T16:53:39.122Z,45.90
2019-05-11T16:56:08.529Z,45.70
2019-05-11T16:58:40.605Z,45.90
2019-05-11T17:01:08.583Z,46.00
2019-05-11T17:03:38.463Z,46.10
2019-05-11T17:06:08.267Z,46.20
2019-05-11T17:08:38.335Z,46.10
2019-05-11T17:11:08.276Z,46.10
2019-05-11T17:13:37.982Z,46.10
2019-05-11T17:16:08.632Z,46.10
2019-05-11T17:18:37.313Z,46.00
2019-05-11T17:21:07.802Z,46.00
2019-05-11T17:23:38.463Z,45.90
2019-05-11T17:26:08.708Z,45.90
2019-05-11T17:28:38.413Z,45.90
2019-05-11T17:31:08.030Z,45.90
2019-05-11T17:33:38.459Z,45.80
2019-05-11T17:36:08.428Z,45.70
2019-05-11T17:38:39.028Z,45.70
2019-05-11T17:41:08.486Z,45.50
2019-05-11T17:43:38.643Z,45.50
2019-05-11T17:46:08.125Z,45.60
2019-05-11T17:48:38.845Z,45.50
2019-05-11T17:51:20.911Z,45.30
2019-05-11T17:53:38.008Z,45.40
2019-05-11T17:56:06.781Z,45.30
2019-05-11T17:58:37.736Z,45.60
2019-05-11T18:01:06.056Z,45.70
2019-05-11T18:03:34.821Z,45.70
2019-05-11T18:06:03.593Z,45.70
2019-05-11T18:08:32.364Z,45.50
2019-05-11T18:11:01.232Z,45.60
2019-05-11T18:13:30.008Z,45.50
2019-05-11T18:15:58.776Z,45.50
2019-05-11T18:18:29.044Z,45.50
2019-05-11T18:20:58.108Z,45.50
2019-05-11T18:23:28.220Z,45.50
2019-05-11T18:25:57.173Z,45.50
2019-05-11T18:28:28.770Z,45.70
2019-05-11T18:30:58.232Z,45.80
2019-05-11T18:33:27.715Z,45.70
2019-05-11T18:35:58.493Z,45.80
2019-05-11T18:38:27.682Z,45.90
2019-05-11T18:40:58.015Z,45.80
2019-05-11T18:43:28.071Z,45.80
2019-05-11T18:45:58.097Z,45.90
2019-05-11T18:48:28.873Z,45.70
2019-05-11T18:50:59.113Z,45.70
2019-05-11T18:53:28.800Z,45.80
2019-05-11T18:55:58.988Z,45.70
2019-05-11T18:58:28.001Z,45.80
2019-05-11T19:00:56.828Z,45.80
2019-05-11T19:03:28.012Z,45.80
2019-05-11T19:05:57.738Z,45.70
2019-05-11T19:08:27.955Z,45.80
2019-05-11T19:10:58.009Z,46.10
2019-05-11T19:13:28.177Z,46.00
2019-05-11T19:15:58.385Z,46.10
2019-05-11T19:18:28.178Z,46.20
2019-05-11T19:20:58.530Z,46.90
2019-05-11T19:23:28.680Z,46.30
2019-05-11T19:25:57.946Z,46.30
2019-05-11T19:28:28.127Z,46.30
2019-05-11T19:30:59.180Z,46.10
2019-05-11T19:33:27.896Z,46.10
2019-05-11T19:35:58.627Z,46.10
2019-05-11T19:38:28.049Z,46.10
2019-05-11T19:40:58.783Z,46.20
2019-05-11T19:43:27.744Z,46.10
2019-05-11T19:45:58.225Z,46.10
2019-05-11T19:48:27.992Z,46.10
2019-05-11T19:51:06.752Z,46.20
2019-05-11T19:53:28.249Z,46.20
2019-05-11T19:55:58.455Z,46.20
2019-05-11T19:58:28.979Z,46.20
2019-05-11T20:00:58.072Z,46.30
2019-05-11T20:03:28.580Z,46.20
2019-05-11T20:05:58.073Z,46.20
2019-05-11T20:08:29.112Z,46.20
2019-05-11T20:10:57.360Z,46.30
2019-05-11T20:13:28.227Z,46.40
2019-05-11T20:15:57.806Z,46.50
2019-05-11T20:18:28.675Z,46.50
2019-05-11T20:20:57.035Z,46.40
2019-05-11T20:23:25.812Z,46.40
2019-05-11T20:25:55.375Z,46.50
2019-05-11T20:28:24.149Z,46.50
2019-05-11T20:30:52.916Z,46.50
2019-05-11T20:33:21.692Z,46.50
2019-05-11T20:35:50.456Z,46.40
2019-05-11T20:38:19.231Z,46.50
2019-05-11T20:40:48.548Z,46.60
2019-05-11T20:43:18.614Z,46.60
2019-05-11T20:45:48.623Z,46.60
2019-05-11T20:48:18.458Z,46.60
2019-05-11T20:50:48.376Z,46.60
2019-05-11T20:53:18.066Z,46.70
2019-05-11T20:55:47.887Z,47.30
2019-05-11T20:58:18.818Z,46.60
2019-05-11T21:00:48.998Z,46.60
2019-05-11T21:03:17.541Z,46.60
2019-05-11T21:05:48.085Z,46.60
2019-05-11T21:08:17.762Z,46.70
2019-05-11T21:10:48.786Z,46.70
2019-05-11T21:13:17.870Z,46.60
2019-05-11T21:15:47.824Z,46.70
2019-05-11T21:18:18.397Z,46.80
2019-05-11T21:20:48.335Z,46.80
2019-05-11T21:23:18.544Z,46.90
2019-05-11T21:25:47.584Z,47.00
2019-05-11T21:28:16.349Z,47.10
2019-05-11T21:30:45.116Z,47.20
2019-05-11T21:33:13.883Z,47.20
2019-05-11T21:35:42.660Z,47.20
2019-05-11T21:38:11.424Z,47.10
2019-05-11T21:40:40.203Z,47.20
2019-05-11T21:43:08.983Z,47.20
2019-05-11T21:45:40.531Z,47.20
2019-05-11T21:48:08.169Z,47.10
2019-05-11T21:50:37.840Z,47.10
2019-05-11T21:53:08.137Z,47.10
2019-05-11T21:55:37.801Z,47.10
2019-05-11T21:58:08.861Z,47.10
2019-05-11T22:00:38.705Z,47.10
2019-05-11T22:03:10.077Z,47.10
2019-05-11T22:05:38.244Z,47.00
2019-05-11T22:08:08.528Z,46.90
2019-05-11T22:10:38.533Z,47.10
2019-05-11T22:13:07.541Z,47.00
2019-05-11T22:15:38.554Z,47.00
2019-05-11T22:18:08.035Z,46.90
2019-05-11T22:20:40.552Z,46.90
2019-05-11T22:23:08.261Z,46.80
2019-05-11T22:25:38.146Z,46.70
2019-05-11T22:28:08.511Z,46.70
2019-05-11T22:30:39.274Z,46.70
2019-05-11T22:33:08.762Z,46.60
2019-05-11T22:35:38.169Z,46.60
2019-05-11T22:38:08.448Z,46.50
2019-05-11T22:40:38.358Z,46.50
2019-05-11T22:43:09.480Z,46.50
2019-05-11T22:45:38.294Z,46.50
2019-05-11T22:48:07.922Z,46.60
2019-05-11T22:50:38.141Z,46.40
2019-05-11T22:53:08.772Z,46.40
2019-05-11T22:55:38.207Z,46.50
2019-05-11T22:58:08.436Z,46.60
2019-05-11T23:00:42.785Z,46.60
2019-05-11T23:03:11.651Z,46.50
2019-05-11T23:05:41.425Z,46.50
2019-05-11T23:08:10.199Z,46.60
2019-05-11T23:10:38.978Z,46.50
2019-05-11T23:13:10.889Z,46.50
2019-05-11T23:15:40.313Z,46.50
2019-05-11T23:18:08.836Z,46.50
2019-05-11T23:20:38.596Z,46.50
2019-05-11T23:23:08.740Z,46.60
2019-05-11T23:25:37.695Z,46.50
2019-05-11T23:28:06.449Z,46.50
2019-05-11T23:30:35.245Z,46.60
2019-05-11T23:33:03.987Z,46.50
2019-05-11T23:35:32.761Z,46.50
2019-05-11T23:38:01.523Z,46.60
2019-05-11T23:40:30.279Z,46.40
2019-05-11T23:42:59.052Z,46.10
2019-05-11T23:45:28.205Z,46.10
2019-05-11T23:47:58.902Z,46.20
2019-05-11T23:50:28.009Z,46.20
2019-05-11T23:53:05.997Z,46.30
2019-05-11T23:55:28.899Z,46.30
2019-05-11T23:57:58.109Z,46.20
